createdAt,value
2019-05-22T00:03:12.557Z,27.17
2019-05-22T00:08:14.466Z,25.30
2019-05-22T00:13:17.576Z,24.17
2019-05-22T00:18:18.663Z,24.13
2019-05-22T00:23:21.996Z,24.20
2019-05-22T00:28:24.909Z,23.00
2019-05-22T00:33:26.693Z,23.17
2019-05-22T00:38:29.163Z,22.57
2019-05-22T00:43:30.814Z,21.37
2019-05-22T00:48:34.003Z,22.00
2019-05-22T00:53:49.339Z,21.47
2019-05-22T00:59:07.416Z,21.40
2019-05-22T01:04:10.894Z,21.53
2019-05-22T01:09:20.067Z,23.20
2019-05-22T01:14:21.253Z,24.43
2019-05-22T01:19:23.448Z,21.57
2019-05-22T01:24:25.690Z,24.90
2019-05-22T01:29:29.579Z,26.43
2019-05-22T01:34:32.773Z,25.53
2019-05-22T01:39:54.716Z,25.20
2019-05-22T01:45:05.889Z,26.33
2019-05-22T01:50:02.029Z,26.97
2019-05-22T01:55:04.518Z,26.63
2019-05-22T02:00:07.116Z,28.23
2019-05-22T02:05:10.081Z,28.40
2019-05-22T02:10:16.890Z,28.23
2019-05-22T02:15:19.187Z,30.97
2019-05-22T02:20:22.804Z,33.03
2019-05-22T02:25:24.724Z,32.87
2019-05-22T02:30:28.215Z,33.20
2019-05-22T02:35:30.241Z,32.53
2019-05-22T02:40:34.542Z,35.57
2019-05-22T02:45:36.038Z,33.27
2019-05-22T02:50:38.641Z,32.13
2019-05-22T02:55:40.450Z,31.23
2019-05-22T03:00:57.654Z,32.77
2019-05-22T03:06:03.457Z,32.30
2019-05-22T03:11:06.544Z,33.57
2019-05-22T03:16:09.035Z,34.00
2019-05-22T03:21:11.052Z,33.43
2019-05-22T03:26:14.247Z,33.53
2019-05-22T03:31:15.769Z,31.17
2019-05-22T03:36:17.851Z,31.13
2019-05-22T03:41:20.143Z,31.37
2019-05-22T03:46:31.108Z,29.03
2019-05-22T03:51:34.305Z,31.43
2019-05-22T03:56:38.906Z,31.50
2019-05-22T04:01:42.113Z,31.53
2019-05-22T04:06:44.526Z,31.17
2019-05-22T04:11:46.749Z,31.47
2019-05-22T04:16:49.649Z,28.47
2019-05-22T04:21:51.353Z,27.57
2019-05-22T04:26:52.852Z,28.40
2019-05-22T04:32:01.931Z,29.90
2019-05-22T04:37:04.841Z,29.00
2019-05-22T04:42:09.237Z,28.97
2019-05-22T04:47:11.536Z,27.87
2019-05-22T04:52:12.824Z,25.87
2019-05-22T04:57:14.718Z,24.83
2019-05-22T05:02:15.820Z,24.87
2019-05-22T05:07:17.407Z,25.07
2019-05-22T05:12:18.911Z,25.93
2019-05-22T05:17:20.009Z,25.73
2019-05-22T05:22:30.927Z,26.77
2019-05-22T05:27:32.111Z,31.50
2019-05-22T05:32:33.607Z,23.50
2019-05-22T05:37:36.025Z,21.43
2019-05-22T05:42:37.715Z,20.50
2019-05-22T05:47:39.432Z,20.03
2019-05-22T05:52:41.214Z,20.33
2019-05-22T05:57:52.205Z,18.53
2019-05-22T06:02:57.703Z,19.43
2019-05-22T06:08:00.904Z,19.83
2019-05-22T06:13:02.727Z,20.43
2019-05-22T06:18:28.817Z,18.53
2019-05-22T06:23:40.131Z,19.53
2019-05-22T06:28:41.724Z,19.20
2019-05-22T06:33:43.227Z,18.40
2019-05-22T06:38:51.147Z,19.03
2019-05-22T06:44:34.667Z,17.20
2019-05-22T06:49:38.836Z,17.10
2019-05-22T06:54:40.133Z,16.97
2019-05-22T06:59:42.825Z,18.33
2019-05-22T07:04:45.529Z,16.70
2019-05-22T07:09:47.813Z,16.00
2019-05-22T07:15:03.883Z,16.77
2019-05-22T07:20:06.076Z,16.63
2019-05-22T07:25:08.796Z,17.87
2019-05-22T07:30:10.491Z,16.60
2019-05-22T07:35:12.487Z,15.87
2019-05-22T07:40:14.507Z,15.10
2019-05-22T07:45:16.405Z,14.87
2019-05-22T07:50:18.100Z,17.97
2019-05-22T07:55:20.576Z,16.80
2019-05-22T08:00:22.203Z,16.50
2019-05-22T08:05:24.905Z,16.73
2019-05-22T08:10:26.132Z,16.40
2019-05-22T08:15:28.643Z,17.03
2019-05-22T08:20:29.808Z,16.83
2019-05-22T08:25:31.421Z,18.63
2019-05-22T08:30:32.612Z,16.80
2019-05-22T08:35:34.719Z,17.60
2019-05-22T08:40:36.902Z,15.10
2019-05-22T08:45:38.303Z,13.80
2019-05-22T08:50:40.999Z,13.03
2019-05-22T08:55:42.886Z,14.23
2019-05-22T09:00:44.116Z,12.33
2019-05-22T09:05:45.542Z,13.03
2019-05-22T09:10:47.316Z,13.17
2019-05-22T09:15:49.420Z,12.07
2019-05-22T09:20:51.520Z,11.97
2019-05-22T09:25:53.523Z,12.70
2019-05-22T09:30:54.740Z,11.03
2019-05-22T09:35:56.236Z,11.47
2019-05-22T09:40:57.671Z,11.80
2019-05-22T09:45:59.060Z,10.77
2019-05-22T09:51:00.663Z,11.47
2019-05-22T09:56:01.866Z,10.03
2019-05-22T10:01:04.672Z,9.60
2019-05-22T10:06:06.489Z,10.40
2019-05-22T10:11:07.801Z,10.13
2019-05-22T10:16:09.031Z,8.90
2019-05-22T10:21:10.696Z,8.03
2019-05-22T10:26:11.912Z,7.17
2019-05-22T10:31:16.871Z,7.20
2019-05-22T10:36:17.236Z,7.30
2019-05-22T10:41:20.910Z,7.53
2019-05-22T10:46:22.063Z,7.23
2019-05-22T10:51:23.385Z,6.33
2019-05-22T10:56:24.988Z,6.40
2019-05-22T11:01:27.660Z,7.17
2019-05-22T11:06:29.567Z,8.00
2019-05-22T11:11:31.267Z,7.70
2019-05-22T11:16:33.181Z,7.07
2019-05-22T11:21:34.396Z,6.87
2019-05-22T11:26:35.529Z,7.20
2019-05-22T11:31:37.723Z,6.47
2019-05-22T11:36:39.299Z,6.47
2019-05-22T11:41:41.086Z,6.97
2019-05-22T11:46:42.790Z,6.30
2019-05-22T11:51:43.993Z,6.30
2019-05-22T11:56:45.184Z,5.97
2019-05-22T12:01:46.281Z,5.07
2019-05-22T12:06:48.507Z,4.87
2019-05-22T12:11:50.076Z,5.40
2019-05-22T12:16:53.225Z,4.60
2019-05-22T12:21:55.107Z,4.50
2019-05-22T12:26:57.107Z,4.50
2019-05-22T12:31:59.274Z,4.40
2019-05-22T12:37:01.307Z,4.60
2019-05-22T12:42:03.581Z,4.87
2019-05-22T12:47:04.773Z,5.07
2019-05-22T12:52:08.175Z,4.20
2019-05-22T12:57:10.268Z,4.03
2019-05-22T13:02:12.180Z,4.43
2019-05-22T13:07:14.100Z,4.47
2019-05-22T13:12:16.537Z,4.33
2019-05-22T13:17:18.971Z,4.70
2019-05-22T13:22:23.709Z,4.43
2019-05-22T13:27:25.381Z,4.90
2019-05-22T13:32:27.495Z,5.03
2019-05-22T13:37:29.305Z,5.47
2019-05-22T13:42:31.540Z,5.70
2019-05-22T13:47:33.185Z,7.70
2019-05-22T13:52:34.794Z,5.90
2019-05-22T13:57:36.775Z,5.73
2019-05-22T14:02:38.078Z,6.37
2019-05-22T14:07:39.173Z,5.70
2019-05-22T14:12:40.657Z,5.90
2019-05-22T14:17:42.037Z,6.00
2019-05-22T14:22:43.474Z,4.83
2019-05-22T14:27:45.168Z,5.03
2019-05-22T14:32:46.675Z,5.20
2019-05-22T14:37:48.691Z,4.70
2019-05-22T14:42:50.087Z,4.40
2019-05-22T14:47:51.476Z,4.50
2019-05-22T14:52:52.572Z,4.97
2019-05-22T14:57:54.273Z,4.27
2019-05-22T15:02:58.351Z,5.10
2019-05-22T15:07:59.443Z,4.83
2019-05-22T15:13:00.634Z,4.67
2019-05-22T15:18:01.755Z,4.40
2019-05-22T15:23:05.082Z,4.27
2019-05-22T15:28:07.679Z,4.27
2019-05-22T15:33:10.383Z,4.00
2019-05-22T15:38:13.583Z,4.40
2019-05-22T15:43:16.179Z,4.03
2019-05-22T15:48:19.486Z,4.40
2019-05-22T15:53:23.095Z,4.70
2019-05-22T15:58:25.393Z,5.30
2019-05-22T16:03:28.227Z,4.83
2019-05-22T16:08:29.816Z,5.00
2019-05-22T16:13:32.375Z,4.90
2019-05-22T16:18:35.569Z,4.50
2019-05-22T16:23:37.909Z,5.40
2019-05-22T16:28:40.952Z,4.83
2019-05-22T16:33:45.451Z,5.83
2019-05-22T16:38:46.978Z,4.40
2019-05-22T16:43:50.448Z,3.63
2019-05-22T16:48:53.153Z,3.40
2019-05-22T16:54:01.057Z,3.37
2019-05-22T16:59:04.558Z,3.83
2019-05-22T17:04:06.825Z,4.00
2019-05-22T17:09:08.991Z,3.90
2019-05-22T17:14:13.242Z,3.80
2019-05-22T17:19:26.369Z,4.23
2019-05-22T17:24:19.864Z,4.80
2019-05-22T17:29:22.256Z,4.00
2019-05-22T17:34:33.344Z,4.27
2019-05-22T17:39:37.625Z,4.37
2019-05-22T17:44:42.549Z,4.77
2019-05-22T17:49:43.861Z,4.60
2019-05-22T17:54:46.073Z,4.83
2019-05-22T17:59:47.566Z,4.53
2019-05-22T18:04:49.894Z,4.53
2019-05-22T18:09:51.092Z,4.23
2019-05-22T18:14:52.838Z,4.60
2019-05-22T18:19:53.938Z,4.93
2019-05-22T18:24:55.115Z,4.00
2019-05-22T18:29:56.421Z,5.10
2019-05-22T18:34:57.527Z,4.73
2019-05-22T18:39:59.062Z,4.80
2019-05-22T18:45:00.360Z,4.70
2019-05-22T18:50:04.441Z,4.93
2019-05-22T18:55:05.692Z,4.60
2019-05-22T19:00:07.318Z,7.83
2019-05-22T19:05:09.367Z,5.77
2019-05-22T19:10:11.889Z,5.67
2019-05-22T19:15:14.094Z,5.10
2019-05-22T19:20:15.833Z,6.07
2019-05-22T19:25:17.059Z,5.13
2019-05-22T19:30:20.122Z,5.67
2019-05-22T19:35:21.448Z,4.97
2019-05-22T19:40:23.034Z,5.40
2019-05-22T19:45:24.835Z,6.03
2019-05-22T19:50:26.280Z,5.23
2019-05-22T19:55:28.822Z,7.63
2019-05-22T20:00:31.066Z,6.00
2019-05-22T20:05:33.393Z,5.73
2019-05-22T20:10:35.093Z,6.00
2019-05-22T20:15:38.228Z,7.70
2019-05-22T20:20:39.952Z,7.90
2019-05-22T20:25:41.109Z,7.87
2019-05-22T20:30:42.725Z,8.53
2019-05-22T20:35:44.156Z,9.93
2019-05-22T20:40:45.383Z,9.60
2019-05-22T20:45:47.204Z,8.80
2019-05-22T20:50:49.202Z,9.27
2019-05-22T20:55:52.029Z,8.33
2019-05-22T21:00:54.716Z,8.70
2019-05-22T21:05:56.034Z,8.37
2019-05-22T21:10:58.059Z,7.83
2019-05-22T21:15:59.188Z,8.00
2019-05-22T21:21:01.593Z,9.30
2019-05-22T21:26:03.327Z,8.80
2019-05-22T21:31:05.237Z,9.03
2019-05-22T21:36:07.859Z,8.90
2019-05-22T21:41:09.704Z,9.17
2019-05-22T21:46:11.705Z,8.47
2019-05-22T21:51:13.391Z,8.63
2019-05-22T21:56:15.089Z,9.10
2019-05-22T22:01:21.381Z,8.60
2019-05-22T22:06:22.813Z,8.93
2019-05-22T22:11:26.895Z,9.23
2019-05-22T22:16:28.537Z,8.93
2019-05-22T22:21:30.822Z,8.67
2019-05-22T22:26:32.230Z,8.83
2019-05-22T22:31:35.934Z,9.30
2019-05-22T22:36:38.055Z,9.80
2019-05-22T22:41:42.288Z,8.87
2019-05-22T22:46:45.785Z,9.30
2019-05-22T22:51:48.381Z,10.00
2019-05-22T22:56:49.997Z,9.90
2019-05-22T23:01:52.896Z,9.80
2019-05-22T23:06:58.103Z,10.00
2019-05-22T23:11:59.903Z,10.30
2019-05-22T23:17:01.859Z,10.43
2019-05-22T23:22:04.637Z,11.20
2019-05-22T23:27:06.450Z,11.63
2019-05-22T23:32:08.798Z,11.80
2019-05-22T23:37:12.280Z,10.50
2019-05-22T23:42:16.943Z,10.53
2019-05-22T23:47:18.631Z,11.03
2019-05-22T23:52:20.636Z,10.20
2019-05-22T23:57:23.629Z,10.80
